Port Sulphur, Louisiana
Current Conditions -  °F | °C
As of 4:59 AM on Saturday 22 Nov 2014 (Local Time) from K1B7 Reporting Station
Clear Clear  
Wind Chill: 57°   Ceiling: Unl
Heat Index: 57°   Visibility: 10mi
Dew Point: 57°   Wind: 7mph
Humidity: 100%   Direction: 60°ENE
Pressure: 30.19"   Gusts: NA
Location:  29.49°N, 89.71°W
Report Text: K1B7 221059Z 06006KT 10SM SKC 14/14 A3019
Loading
Personal Weather Stations






























Interactive Weather Map New forecast layout! Learn more

10-Day Weather Forecast

Advertisements
Track Severe Weather on mobile